Tiempo atmosférico en la estación meteorológica de Villablino, León (958 m.)



Fecha
DESCASC
Temp. máxima en grados centígrados (hora)
DESCASC
Temp. mínima en grados centígrados (hora)
DESCASC
Temp. media en grados centígrados
DESCASC
Racha de viento máxima en m/sg (hora)
DESCASC
Velocidad máxima media en intervalos de 10 minutos(hora)
DESCASC
Precipitaciones diarias en mm
DESCASC
Precipitaciones de 00:00 a 06:00 en mm
DESCASC
Precipitaciones de 06:00 a 12:00 en mm
DESCASC
Precipitaciones de 12:00 a 18:00 en mm
DESCASC
Precipitaciones de 18:00 a 24:00 en mm
DESCASC
05-04-2020 14.8 (12:10) 9.3 (23:50) 12.1 13.89 (04:10) 8.33 (03:20) 2.4 0 0 2 0.4
04-04-2020 17.3 (14:30) -1.7 (07:50) 7.8 13.61 (15:10) 7.78 (15:40) 0 0 0 0 0
03-04-2020 18 (18:10) -3 (08:00) 7.5 9.44 (16:20) 6.67 (16:40) 0 0 0 0 0
02-04-2020 12.9 (15:10) 1.7 (00:00) 7.3 8.61 (15:30) 5 (16:10) 0 0 0 0 0
01-04-2020 14.3 (17:50) 3.5 (00:00) 8.9 10 (01:20) 5.83 (20:40) 2.6 2.4 0 0.2 0
31-03-2020 10.8 (16:00) -1 (-00:0) 4.9 10.83 (18:40) 4.17 (15:40) 1.2 0 0 0 1.2
30-03-2020 5.6 (00:00) 0.2 (00:00) 2.9 8.61 (19:40) 4.44 (13:50) 0 0 0 0 0
29-03-2020 16.6 (13:30) -2.3 (-00:0) 7.2 10.83 (16:00) 7.5 (16:20) 0 0 0 0 0
28-03-2020 17.9 (14:10) -3.6 (-00:0) 7.1 8.33 (15:10) 5 (15:10) 0 0 0 0 0
27-03-2020 13.2 (15:40) -4.5 (-00:0) 4.3 10.56 (14:40) 4.72 (16:50) 0 0 0 0 0
26-03-2020 14.9 (13:00) -4.8 (-00:0) 5 10.83 (17:20) 6.67 (17:30) 0 0 0 0 0
25-03-2020 17.1 (16:10) 0.9 (00:00) 9 8.61 (15:40) 4.44 (16:40) 0 0 0 0 0
24-03-2020 21.2 (17:00) 5.1 (00:00) 13.2 7.5 (18:40) 4.17 (18:40) 0 0 0 0 0
23-03-2020 17.8 (13:50) -1.5 (-00:0) 8.1 8.61 (18:10) 6.39 (18:10) 0 0 0 0 0
22-03-2020 17.2 (13:40) 0.9 (07:10) 9.1 10.83 (16:40) 6.67 (16:40) 0.2 0.2 0 0 0
21-03-2020 17.1 (15:00) 4.9 (00:00) 11 9.72 (05:50) 5.28 (07:40) 3 0 0 0.2 2.8
20-03-2020 12.1 (15:00) 3.3 (00:00) 7.7 8.33 (11:00) 4.44 (11:00) 0 0 0 0 0
19-03-2020 15.8 (12:30) 2.3 (00:00) 9.1 7.78 (13:30) 4.17 (13:20) 17.8 0 0 17.8 0
18-03-2020 20.9 (16:20) 0.2 (00:00) 10.5 8.06 (15:20) 4.72 (14:20) 0 0 0 0 0
17-03-2020 17.5 (15:00) -1.1 (-00:0) 8.2 9.72 (14:30) 4.17 (17:10) 0 0 0 0 0
16-03-2020 7.8 (14:50) 0.5 (00:00) 4.2 11.67 (08:20) 5.83 (06:30) 1.2 0.6 0.4 0.2 0
15-03-2020 15.1 (15:50) -2.6 (-00:0) 6.3 18.06 (14:00) 10.83 (14:10) 3.2 0 0 0.4 2.8
14-03-2020 21.3 (16:50) -3.8 (-00:0) 8.7 7.78 (18:10) 4.72 (18:30) 0 0 0 0 0
13-03-2020 16.6 (16:00) 0.7 (23:40) 8.7 9.17 (17:20) 5.83 (14:30) 0 0 0 0 0
12-03-2020 16.8 (13:30) 1.7 (00:00) 9.2 12.5 (15:50) 8.33 (15:30) 0 0 0 0 0
11-03-2020 21.9 (15:50) -0.5 (-00:0) 10.7 15.28 (16:30) 8.33 (16:40) 0 0 0 0 0
10-03-2020 20.4 (16:20) 0 (00:00) 10.2 10.28 (17:50) 6.67 (17:10) 0 0 0 0 0
09-03-2020 15.1 (17:10) 2.2 (00:00) 8.7 10 (14:50) 4.17 (14:50) 0 0 0 0 0

Gráficas

Temp. máximas Temp. mínimas Temp. medias Precipitaciones Rachas de viento máximas Velocidades máximas media en intervalos de 10 minutos

Datos horarios

Fecha y hora oficial Temperatura (ºC) Velocidad del viento (km/h) Dirección del viento Racha (km/h) Dirección de racha Precipitación (mm) Presión (hPa) Tendencia (hPa) Humedad (%)
2020-04-07 23:00:00 10.8 4 Nordeste 13 Norte 0 -- -- 84
2020-04-07 22:00:00 12 6 Norte 24 Noroeste 0 -- -- 83
2020-04-07 21:00:00 13.5 14 Norte 32 Noroeste 0 -- -- 74
2020-04-07 20:00:00 15.6 2 Noroeste 5 Noroeste 0 -- -- 62
2020-04-07 19:00:00 15.6 4 Nordeste 14 Sudeste 0 -- -- 60
2020-04-07 18:00:00 14.4 17 Sur 31 Sur 0 -- -- 74
2020-04-07 17:00:00 15.8 6 Sudeste 28 Sur 0 -- -- 70
2020-04-07 16:00:00 16.3 3 Oeste 14 Sudoeste 0 -- -- 59
2020-04-07 15:00:00 14.8 15 Sur 26 Sudoeste 0 -- -- 68
2020-04-07 14:00:00 15 12 Sudoeste 24 Sur 0 -- -- 64
2020-04-07 13:00:00 15.8 8 Sudoeste 16 Sudoeste 0 -- -- 59
2020-04-07 12:00:00 15.7 6 Sur 15 Sur 0 -- -- 61
2020-04-07 11:00:00 12.7 8 Sur 10 Sur 0 -- -- 71
2020-04-07 10:00:00 11.8 4 Sur 8 Sur 0 -- -- 72
2020-04-07 09:00:00 8.9 0 Calma 4 Noroeste 0 -- -- 93
2020-04-07 08:00:00 7.3 3 Este 6 Norte 0 -- -- 94
2020-04-07 07:00:00 7.5 0 Calma 2 Sur 0 -- -- 94
2020-04-07 06:00:00 7.5 0 Calma 5 Norte 0 -- -- 93
2020-04-07 05:00:00 7.5 2 Sudoeste 6 Sudoeste 0 -- -- 93
2020-04-07 04:00:00 7.6 3 Sudeste 6 Sur 0 -- -- 94
2020-04-07 03:00:00 7.4 3 Sudoeste 6 Sur 0 -- -- 94
2020-04-07 02:00:00 7.6 -- -- -- -- 0 -- -- 93
2020-04-07 01:00:00 7.8 0 Calma 3 Este 0 -- -- 92
2020-04-07 00:00:00 8.3 0 Calma 5 Norte 0 -- -- 89
2020-04-06 23:00:00 9 2 Norte 5 Norte 0 -- -- 85
2020-04-06 22:00:00 9.6 0 Calma 7 Norte 0 -- -- 81
2020-04-06 21:00:00 10.3 2 Noroeste 14 Noroeste 0 -- -- 76
2020-04-06 20:00:00 11.1 7 Norte 13 Noroeste 0 -- -- 69
2020-04-06 19:00:00 12.1 5 Sudoeste 20 Norte 0 -- -- 60
2020-04-06 18:00:00 12.6 10 Sur 34 Sudoeste 0 -- -- 61
2020-04-06 17:00:00 13.8 20 Sur 34 Sur 0 -- -- 49
2020-04-06 16:00:00 15.4 15 Sur 34 Sur 0 -- -- 52
2020-04-06 15:00:00 14.1 18 Sur 30 Sur 0 -- -- 59
2020-04-06 14:00:00 15.3 4 Sudeste 12 Noroeste 0 -- -- 62
2020-04-06 13:00:00 13.4 2 Oeste 8 Oeste 0.2 -- -- 71
2020-04-06 12:00:00 10.7 3 Sudeste 8 Nordeste 0 -- -- 89
2020-04-06 11:00:00 9.2 3 Este 10 Norte 0.6 -- -- 96
2020-04-06 10:00:00 8.5 3 Este 9 Sudeste 1 -- -- 98
2020-04-06 09:00:00 8.4 3 Sur 8 Sur 1.6 -- -- 99
2020-04-06 08:00:00 8.3 5 Sur 6 Sur 0.2 -- -- 99
2020-04-06 07:00:00 8.1 0 Calma 2 Sudeste 0 -- -- 99
2020-04-06 06:00:00 8.3 0 Calma 4 Sur 0.2 -- -- 98
2020-04-06 05:00:00 8.3 0 Calma 4 Sur 0 -- -- 98
2020-04-06 04:00:00 8.4 0 Calma 4 Norte 0 -- -- 98
2020-04-06 03:00:00 8.5 3 Nordeste 5 Noroeste 0 -- -- 97
2020-04-06 02:00:00 8.5 0 Calma 6 Sur 0 -- -- 97
2020-04-06 01:00:00 8.8 2 Norte 10 Sur 0.2 -- -- 95
2020-04-06 00:00:00 9.4 4 Norte 9 Noroeste 0 -- -- 94
2020-04-05 23:00:00 9.7 0 Calma 5 Oeste 0 -- -- 93
2020-04-05 22:00:00 9.8 3 Sur 6 Este 0 -- -- 92
2020-04-05 21:00:00 10.5 2 Norte 13 Sudoeste 0 -- -- 88
2020-04-05 20:00:00 11.1 3 Sudeste 10 Sudeste 0 -- -- 89
2020-04-05 19:00:00 11.3 4 Sur 15 Sudoeste 0.4 -- -- 87
2020-04-05 18:00:00 11.3 10 Sur 18 Sur 0.8 -- -- 84
2020-04-05 17:00:00 11.6 2 Norte 13 Nordeste 1 -- -- 86
2020-04-05 16:00:00 11.7 9 Sudoeste 31 Sur 0.2 -- -- 77
2020-04-05 15:00:00 13.3 18 Sudeste 39 Sudeste 0 -- -- 67
2020-04-05 14:00:00 13.8 15 Sudeste 39 Sudeste 0 -- -- 63
2020-04-05 13:00:00 12.8 22 Sudeste 37 Sudeste 0 -- -- 66
2020-04-05 12:00:00 13.1 22 Sudeste 39 Sudeste 0 -- -- 67
2020-04-05 11:00:00 12.5 19 Sudeste 40 Sudeste 0 -- -- 65
2020-04-05 10:00:00 10.7 16 Sudeste 33 Sudeste 0 -- -- 72
2020-04-05 09:00:00 11.7 23 Sur 42 Sudeste 0 -- -- 64
2020-04-05 08:00:00 10.5 5 Nordeste 30 Sudeste 0 -- -- 69
2020-04-05 07:00:00 10.7 13 Sudeste 40 Sudeste 0 -- -- 66
2020-04-05 06:00:00 10.8 22 Sudeste 36 Sudeste 0 -- -- 65
2020-04-05 05:00:00 10.7 15 Sudeste 50 Sudeste 0 -- -- 63
2020-04-05 04:00:00 11.5 26 Sudeste 49 Sur 0 -- -- 58
2020-04-05 03:00:00 12 21 Sur 42 Sudeste 0 -- -- 53
2020-04-05 02:00:00 12.1 18 Sur 35 Sur 0 -- -- 52
2020-04-05 01:00:00 12.4 22 Sur 46 Sudoeste 0 -- -- 50
2020-04-05 00:00:00 13.1 20 Sur 40 Sudoeste 0 -- -- 42
2020-04-04 23:00:00 13.1 19 Sur 40 Sur 0 -- -- 52
2020-04-04 22:00:00 12.7 15 Sudeste 33 Sur 0 -- -- 52
2020-04-04 21:00:00 12.9 16 Sudeste 30 Sudeste 0 -- -- 50
2020-04-04 20:00:00 13.6 11 Sudeste 44 Sudoeste 0 -- -- 46
2020-04-04 19:00:00 14.9 11 Sur 34 Sur 0 -- -- 38
2020-04-04 18:00:00 15.7 11 Sudeste 31 Sur 0 -- -- 42
2020-04-04 17:00:00 15.4 16 Sudeste 44 Sudeste 0 -- -- 41
2020-04-04 16:00:00 16.1 24 Sur 49 Sur 0 -- -- 37
2020-04-04 15:00:00 16.7 18 Sudeste 36 Sudeste 0 -- -- 32
2020-04-04 14:00:00 15.8 20 Sur 46 Sur 0 -- -- 30
2020-04-04 13:00:00 15.3 20 Sur 36 Sur 0 -- -- 37
2020-04-04 12:00:00 14.9 5 Sudeste 15 Sudeste 0 -- -- 42
2020-04-04 11:00:00 9.8 6 Sur 12 Sur 0 -- -- 61
2020-04-04 10:00:00 6.6 2 Este 6 Este 0 -- -- 72
2020-04-04 09:00:00 -0.8 2 Este 7 Noroeste 0 -- -- 97
2020-04-04 08:00:00 -1.6 2 Noroeste 5 Norte 0 -- -- 97
2020-04-04 07:00:00 -1.3 2 Noroeste 7 Norte 0 -- -- 96
2020-04-04 06:00:00 -1 2 Norte 5 Este 0 -- -- 95
2020-04-04 05:00:00 -0.3 0 Calma 9 Norte 0 -- -- 94
2020-04-04 04:00:00 0.6 2 Norte 6 Norte -- -- -- 92
2020-04-04 03:00:00 1.5 0 Calma 5 Este 0 -- -- 90
2020-04-04 02:00:00 2.6 0 Calma 6 Este 0 -- -- 88
2020-04-04 01:00:00 4.3 3 Este 11 Norte 0 -- -- 80
2020-04-04 00:00:00 6 6 Norte 15 Norte 0 -- -- 72
2020-04-03 23:00:00 7.3 7 Norte 13 Norte 0 -- -- 69
2020-04-03 22:00:00 9.7 8 Norte 13 Norte 0 -- -- 59
2020-04-03 21:00:00 10.1 2 Norte 12 Oeste 0 -- -- 52
2020-04-03 20:00:00 12.9 6 Oeste 25 Sur 0 -- -- 31
2020-04-03 19:00:00 14.9 17 Sur 27 Sur 0 -- -- 28
2020-04-03 18:00:00 17.7 15 Sur 33 Sur 0 -- -- 24
2020-04-03 17:00:00 17.1 22 Sur 34 Sur 0 -- -- 32
2020-04-03 16:00:00 17.4 18 Sudoeste 32 Sudoeste 0 -- -- 37
2020-04-03 15:00:00 16.8 16 Sudoeste 32 Sur 0 -- -- 40
2020-04-03 14:00:00 15.3 17 Sur 23 Sur 0 -- -- 43
2020-04-03 13:00:00 13.3 4 Este 8 Nordeste 0 -- -- 49
2020-04-03 12:00:00 10.4 2 Sudeste 6 Sudeste 0 -- -- 58
2020-04-03 11:00:00 6.3 5 Sur 9 Sur 0 -- -- 68
2020-04-03 10:00:00 4.4 2 Sudeste 5 Sur 0 -- -- 72
2020-04-03 09:00:00 -2.4 0 Calma 6 Norte 0 -- -- 95
2020-04-03 08:00:00 -3 3 Norte 6 Norte 0 -- -- 96
2020-04-03 07:00:00 -2.7 5 Norte 7 Norte 0 -- -- 96
2020-04-03 06:00:00 -2.3 3 Norte 6 Noroeste 0 -- -- 94
2020-04-03 05:00:00 -1.4 4 Norte 8 Norte 0 -- -- 93
2020-04-03 04:00:00 -0.7 5 Norte 8 Nordeste 0 -- -- 92
2020-04-03 03:00:00 -0.5 6 Norte 9 Norte 0 -- -- 91
2020-04-03 02:00:00 -0.2 8 Norte 10 Norte 0 -- -- 89
2020-04-03 01:00:00 0.8 4 Norte 13 Norte 0 -- -- 87
2020-04-03 00:00:00 1.7 9 Norte 13 Norte 0 -- -- 83
2020-04-02 23:00:00 3.2 9 Norte 15 Norte 0 -- -- 79
2020-04-02 22:00:00 5.8 11 Noroeste 23 Noroeste 0 -- -- 68
2020-04-02 21:00:00 6.8 13 Noroeste 25 Noroeste 0 -- -- 64
2020-04-02 20:00:00 8 13 Noroeste 29 Noroeste 0 -- -- 60
2020-04-02 19:00:00 9 14 Noroeste 27 Noroeste 0 -- -- 58
2020-04-02 18:00:00 12.7 12 Norte 26 Norte 0 -- -- 49
2020-04-02 17:00:00 11.2 10 Norte 29 Norte 0 -- -- 49
2020-04-02 16:00:00 12.5 15 Norte 31 Norte 0 -- -- 49
2020-04-02 15:00:00 11.9 12 Nordeste 27 Norte 0 -- -- 46
2020-04-02 14:00:00 11.7 13 Norte 26 Norte 0 -- -- 55
2020-04-02 13:00:00 11 13 Nordeste 20 Norte 0 -- -- 53
2020-04-02 12:00:00 8.8 10 Norte 27 Norte 0 -- -- 68
2020-04-02 11:00:00 8.8 9 Norte 23 Norte 0 -- -- 69
2020-04-02 10:00:00 8.4 10 Norte 23 Norte 0 -- -- 69
2020-04-02 09:00:00 7.5 6 Nordeste 19 Norte 0 -- -- 74
2020-04-02 08:00:00 7.1 7 Nordeste 15 Nordeste 0 -- -- 81
2020-04-02 07:00:00 6.2 2 Nordeste 6 Norte 0 -- -- 87
2020-04-02 06:00:00 6.5 5 Nordeste 8 Norte 0 -- -- 85
2020-04-02 05:00:00 6.4 3 Norte 10 Nordeste 0 -- -- 85
2020-04-02 04:00:00 6.4 4 Nordeste 7 Nordeste 0 -- -- 86
2020-04-02 03:00:00 6.2 0 Calma 5 Este 0 -- -- 90
2020-04-02 02:00:00 6.3 2 Sudeste 6 Noroeste 0 -- -- 89
2020-04-02 01:00:00 6.3 3 Noroeste 6 Noroeste 0 -- -- 88
2020-04-02 00:00:00 6.7 0 Calma 11 Sur 0 -- -- 83
2020-04-01 23:00:00 6.9 6 Sur 15 Sur 0 -- -- 81
2020-04-01 22:00:00 7.1 10 Sur 29 Sur 0 -- -- 79
2020-04-01 21:00:00 7.4 19 Sur 30 Sudoeste 0 -- -- 78
2020-04-01 20:00:00 10.1 5 Sudeste 17 Nordeste 0 -- -- 64
2020-04-01 19:00:00 11.1 9 Norte 29 Noroeste 0 -- -- 60
2020-04-01 18:00:00 13.3 5 Nordeste 15 Este 0 -- -- 49
2020-04-01 17:00:00 12.7 7 Este 15 Este 0 -- -- 50
2020-04-01 16:00:00 13.4 3 Sur 15 Nordeste 0.2 -- -- 50
2020-04-01 15:00:00 12.2 7 Nordeste 14 Nordeste 0 -- -- 53
2020-04-01 14:00:00 10.4 5 Oeste 22 Sur 0 -- -- 61
2020-04-01 13:00:00 10.5 5 Este 18 Nordeste 0 -- -- 65
2020-04-01 12:00:00 10.3 8 Este 15 Este 0 -- -- 63
2020-04-01 11:00:00 7.3 4 Sur 7 Sur 0 -- -- 81
2020-04-01 10:00:00 4.8 3 Este 5 Este 0 -- -- 92
2020-04-01 09:00:00 3.5 4 Nordeste 12 Noroeste 0 -- -- 92
2020-04-01 08:00:00 3.9 4 Norte 16 Norte 0 -- -- 88
2020-04-01 07:00:00 4.2 8 Norte 17 Norte 0 -- -- 87
2020-04-01 06:00:00 4.2 9 Norte 15 Este 0.2 -- -- 88
2020-04-01 05:00:00 4.7 10 Nordeste 26 Este 0.8 -- -- 85
2020-04-01 04:00:00 5.8 6 Norte 23 Nordeste 0.2 -- -- 81
2020-04-01 03:00:00 6.2 10 Nordeste 18 Este 0.6 -- -- 81
2020-04-01 02:00:00 6.1 4 Norte 36 Sudoeste 0.2 -- -- 84
2020-04-01 01:00:00 6.1 11 Sur 28 Sur 0.4 -- -- 85
2020-04-01 00:00:00 5.9 6 Oeste 19 Sur 0 -- -- 84
2020-03-31 23:00:00 5.2 4 Norte 19 Nordeste 0.2 -- -- 86
2020-03-31 22:00:00 5.4 6 Noroeste 22 Nordeste 0.2 -- -- 81
2020-03-31 21:00:00 4.8 9 Noroeste 22 Nordeste 0.8 -- -- 85
2020-03-31 20:00:00 5.7 8 Norte 31 Sudeste 0 -- -- 76
2020-03-31 19:00:00 7.1 13 Nordeste 39 Nordeste 0 -- -- 68
2020-03-31 18:00:00 8.2 11 Este 31 Este 0 -- -- 63
2020-03-31 17:00:00 9.9 9 Sur 28 Sudeste 0 -- -- 58
2020-03-31 16:00:00 10.8 8 Sudeste 37 Este 0 -- -- 53
2020-03-31 15:00:00 10.1 11 Nordeste 27 Nordeste 0 -- -- 49
2020-03-31 14:00:00 9.5 11 Nordeste 30 Nordeste 0 -- -- 46
2020-03-31 13:00:00 9.1 13 Nordeste 32 Nordeste 0 -- -- 48
2020-03-31 12:00:00 6.2 13 Nordeste 30 Este 0 -- -- 48
2020-03-31 11:00:00 3 8 Nordeste 21 Nordeste 0 -- -- 49
2020-03-31 10:00:00 1.9 6 Norte 14 Nordeste 0 -- -- 56
2020-03-31 09:00:00 0.6 5 Norte 13 Nordeste 0 -- -- 63
2020-03-31 08:00:00 0.2 8 Norte 19 Norte 0 -- -- 65
2020-03-31 07:00:00 -0.6 5 Nordeste 8 Norte 0 -- -- 68
2020-03-31 06:00:00 -0.9 3 Este 9 Norte 0 -- -- 72
2020-03-31 05:00:00 -0.5 5 Norte 10 Norte 0 -- -- 68
2020-03-31 04:00:00 -0.1 5 Nordeste 25 Nordeste 0 -- -- 69
2020-03-31 03:00:00 0.5 8 Norte 18 Nordeste 0 -- -- 65
2020-03-31 02:00:00 0.8 10 Norte 26 Noroeste 0 -- -- 63
2020-03-31 01:00:00 0.7 8 Nordeste 23 Norte 0 -- -- 62
2020-03-31 00:00:00 0.2 6 Nordeste 27 Nordeste 0 -- -- 68
2020-03-30 23:00:00 0.7 7 Nordeste 21 Este 0 -- -- 61
2020-03-30 22:00:00 0.6 5 Nordeste 21 Nordeste 0 -- -- 61
2020-03-30 21:00:00 0.3 7 Norte 31 Nordeste 0 -- -- 60
2020-03-30 20:00:00 0.8 14 Norte 31 Norte 0 -- -- 56
2020-03-30 19:00:00 1.8 16 Norte 28 Norte 0 -- -- 55
2020-03-30 18:00:00 1.5 12 Nordeste 30 Nordeste 0 -- -- 58
2020-03-30 17:00:00 2.9 11 Norte 23 Nordeste 0 -- -- 56
2020-03-30 16:00:00 3.4 13 Nordeste 29 Este 0 -- -- 55
2020-03-30 15:00:00 4.4 10 Nordeste 24 Nordeste 0 -- -- 52
2020-03-30 14:00:00 3 14 Nordeste 30 Este 0 -- -- 56
2020-03-30 13:00:00 3.4 10 Nordeste 26 Este 0 -- -- 55
2020-03-30 12:00:00 3.8 13 Nordeste 24 Nordeste 0 -- -- 55
2020-03-30 11:00:00 2.6 8 Este 27 Nordeste 0 -- -- 57
2020-03-30 10:00:00 3.3 7 Nordeste 22 Nordeste 0 -- -- 59
2020-03-30 09:00:00 1.9 8 Nordeste 17 Nordeste 0 -- -- 62
2020-03-30 08:00:00 1.6 8 Nordeste 24 Nordeste 0 -- -- 68
2020-03-30 07:00:00 1.9 9 Norte 24 Norte 0 -- -- 64
2020-03-30 06:00:00 2.2 14 Norte 24 Nordeste 0 -- -- 65
2020-03-30 05:00:00 2.9 8 Nordeste 26 Norte 0 -- -- 65
2020-03-30 04:00:00 3.8 10 Norte 22 Norte 0 -- -- 65
2020-03-30 03:00:00 4.3 10 Norte 18 Norte 0 -- -- 68
2020-03-30 02:00:00 4.5 8 Norte 19 Nordeste 0 -- -- 73
2020-03-30 01:00:00 4.8 8 Este 26 Este 0 -- -- 76
2020-03-30 00:00:00 5.6 5 Nordeste 21 Nordeste 0 -- -- 74
2020-03-29 23:00:00 5.8 5 Nordeste 18 Este 0 -- -- 79
2020-03-29 22:00:00 6.2 8 Norte 20 Norte 0 -- -- 74
2020-03-29 21:00:00 6.9 3 Nordeste 24 Norte 0 -- -- 69
2020-03-29 20:00:00 7.7 4 Este 24 Norte 0 -- -- 69
2020-03-29 19:00:00 10 10 Nordeste 27 Noroeste 0 -- -- 59
2020-03-29 18:00:00 11.6 20 Noroeste 37 Noroeste 0 -- -- 56
2020-03-29 17:00:00 11.1 23 Noroeste 38 Noroeste 0 -- -- 57
2020-03-29 16:00:00 12.2 26 Noroeste 39 Noroeste 0 -- -- 53
2020-03-29 15:00:00 15 21 Noroeste 34 Noroeste 0 -- -- 44
2020-03-29 14:00:00 15.8 14 Noroeste 28 Noroeste 0 -- -- 39
2020-03-29 13:00:00 15 4 Sudeste 7 Sudoeste 0 -- -- 39
2020-03-29 12:00:00 10.6 3 Sur 5 Sur 0 -- -- 52
2020-03-29 11:00:00 7.4 3 Sudeste 6 Sur 0 -- -- 60
2020-03-29 10:00:00 4.2 3 Sudeste 5 Norte 0 -- -- 74
2020-03-29 09:00:00 -1.2 3 Norte 6 Norte 0 -- -- 96
2020-03-29 08:00:00 -2 3 Norte 5 Norte 0 -- -- 97
2020-03-29 07:00:00 -2 0 Calma 5 Nordeste 0 -- -- 96
2020-03-29 06:00:00 -1.4 2 Nordeste 5 Norte 0 -- -- 97
2020-03-29 05:00:00 -0.7 2 Nordeste 6 Norte 0 -- -- 95
2020-03-29 03:00:00 0.6 5 Norte 8 Norte 0 -- -- 92
2020-03-29 01:00:00 1.7 4 Norte 7 Noroeste 0 -- -- 91
2020-03-29 00:00:00 2.5 4 Norte 8 Noroeste 0 -- -- 89
2020-03-28 23:00:00 3.9 6 Norte 9 Norte 0 -- -- 83
2020-03-28 22:00:00 6.4 7 Norte 12 Norte 0 -- -- 77
2020-03-28 21:00:00 7.7 6 Norte 19 Noroeste 0 -- -- 74
2020-03-28 20:00:00 9.7 15 Noroeste 28 Noroeste 0 -- -- 64
2020-03-28 19:00:00 11.2 14 Noroeste 23 Noroeste 0 -- -- 56
2020-03-28 18:00:00 13.1 12 Noroeste 24 Noroeste 0 -- -- 44
2020-03-28 17:00:00 15.3 12 Noroeste 22 Norte 0 -- -- 37
2020-03-28 16:00:00 15.6 13 Norte 30 Noroeste 0 -- -- 36
2020-03-28 15:00:00 16.1 13 Noroeste 23 Noroeste 0 -- -- 31
2020-03-28 14:00:00 17.6 6 Sur 12 Sur 0 -- -- 24
2020-03-28 13:00:00 15 6 Norte 12 Este 0 -- -- 23
2020-03-28 12:00:00 13.2 3 Sudeste 6 Sur 0 -- -- 36
2020-03-28 11:00:00 9.2 3 Sudeste 5 Sudeste 0 -- -- 44
2020-03-28 10:00:00 5.6 3 Sudeste 6 Este 0 -- -- 53
2020-03-28 09:00:00 1.2 2 Este 5 Nordeste 0 -- -- 71
2020-03-28 08:00:00 -2.6 3 Noroeste 8 Norte 0 -- -- 84
2020-03-28 07:00:00 -3.5 6 Norte 9 Norte 0 -- -- 87
2020-03-28 06:00:00 -3.6 3 Norte 5 Nordeste 0 -- -- 85
2020-03-28 05:00:00 -2.8 2 Norte 6 Norte 0 -- -- 82
2020-03-28 04:00:00 -2.6 2 Nordeste 6 Norte 0 -- -- 82
2020-03-28 03:00:00 -2.7 0 Calma 5 Noroeste 0 -- -- 83
2020-03-28 02:00:00 -1.9 4 Norte 5 Norte 0 -- -- 76
2020-03-28 01:00:00 -1.4 3 Nordeste 7 Nordeste 0 -- -- 73
2020-03-28 00:00:00 0.3 3 Norte 9 Norte 0 -- -- 66
2020-03-27 23:00:00 2.1 6 Norte 12 Norte 0 -- -- 56
2020-03-27 22:00:00 3.1 5 Norte 17 Norte 0 -- -- 55
2020-03-27 21:00:00 5.4 5 Noroeste 10 Este 0 -- -- 42
2020-03-27 20:00:00 7.8 4 Este 20 Sur 0 -- -- 40
2020-03-27 19:00:00 9.5 8 Sur 29 Sur 0 -- -- 31
2020-03-27 18:00:00 10.4 8 Este 32 Nordeste 0 -- -- 29
2020-03-27 17:00:00 12.7 16 Este 32 Este 0 -- -- 26
2020-03-27 16:00:00 13.1 14 Nordeste 37 Este 0 -- -- 25
2020-03-27 15:00:00 12.6 12 Este 38 Este 0 -- -- 24
2020-03-27 14:00:00 10.3 10 Nordeste 26 Este 0 -- -- 28
2020-03-27 13:00:00 10.3 9 Nordeste 33 Oeste 0 -- -- 30
2020-03-27 12:00:00 9.4 12 Este 28 Nordeste 0 -- -- 34
2020-03-27 11:00:00 7.8 6 Oeste 15 Norte 0 -- -- 38
2020-03-27 10:00:00 5.5 7 Nordeste 18 Norte 0 -- -- 49
2020-03-27 09:00:00 2.3 5 Norte 13 Norte 0 -- -- 67
2020-03-27 08:00:00 -3.9 5 Norte 9 Norte 0 -- -- 90
2020-03-27 07:00:00 -4.3 5 Norte 11 Norte 0 -- -- 92
2020-03-27 06:00:00 -3.6 6 Norte 8 Norte 0 -- -- 90
2020-03-27 05:00:00 -3.5 3 Norte 9 Noroeste 0 -- -- 89
2020-03-27 04:00:00 -2.9 4 Norte 9 Norte 0 -- -- 86
2020-03-27 03:00:00 -2.9 3 Noroeste 9 Norte 0 -- -- 89
2020-03-27 02:00:00 -2.1 3 Norte 8 Norte 0 -- -- 88
2020-03-27 01:00:00 -1.3 5 Noroeste 10 Noroeste 0 -- -- 86
2020-03-27 00:00:00 0.1 5 Nordeste 17 Noroeste 0 -- -- 80
2020-03-26 23:00:00 1.4 6 Norte 14 Norte 0 -- -- 74
2020-03-26 22:00:00 3.2 8 Norte 27 Noroeste 0 -- -- 66
2020-03-26 21:00:00 4 15 Noroeste 30 Noroeste 0 -- -- 65
2020-03-26 20:00:00 5.4 15 Noroeste 35 Noroeste 0 -- -- 62
2020-03-26 19:00:00 7 20 Noroeste 34 Noroeste 0 -- -- 62
2020-03-26 18:00:00 8.4 21 Noroeste 39 Noroeste 0 -- -- 56
2020-03-26 17:00:00 12.2 22 Noroeste 36 Noroeste 0 -- -- 45
2020-03-26 16:00:00 13.4 21 Noroeste 34 Noroeste 0 -- -- 38
2020-03-26 15:00:00 13.7 21 Noroeste 35 Norte 0 -- -- 27
2020-03-26 14:00:00 14.6 11 Norte 25 Noroeste 0 -- -- 23
2020-03-26 13:00:00 14.9 8 Nordeste 22 Nordeste 0 -- -- 15
2020-03-26 12:00:00 13.5 13 Noroeste 31 Noroeste 0 -- -- 13
2020-03-26 11:00:00 10.9 5 Este 10 Norte 0 -- -- 21
2020-03-26 10:00:00 6.6 3 Sur 7 Este 0 -- -- 37
2020-03-26 09:00:00 2.5 3 Sudeste 6 Este 0 -- -- 56
2020-03-26 08:00:00 -4.4 3 Norte 9 Noroeste 0 -- -- 80
2020-03-26 07:00:00 -4.6 4 Nordeste 6 Nordeste 0 -- -- 83
2020-03-26 06:00:00 -3.7 3 Norte 5 Oeste 0 -- -- 80
2020-03-26 05:00:00 -3.1 4 Norte 7 Norte 0 -- -- 81
2020-03-26 04:00:00 -2.3 0 Calma 6 Norte 0 -- -- 84
2020-03-26 03:00:00 -1.7 5 Norte 7 Norte 0 -- -- 82
2020-03-26 02:00:00 -1.3 3 Noroeste 8 Norte 0 -- -- 83
2020-03-26 01:00:00 1 4 Norte 8 Nordeste 0 -- -- 69
2020-03-26 00:00:00 1.7 4 Norte 8 Noroeste 0 -- -- 67
2020-03-25 23:00:00 3.4 5 Norte 12 Norte 0 -- -- 66
2020-03-25 22:00:00 4.4 2 Nordeste 8 Nordeste 0 -- -- 77
2020-03-25 21:00:00 7.8 4 Nordeste 19 Noroeste 0 -- -- 64
2020-03-25 20:00:00 9.9 7 Noroeste 24 Noroeste 0 -- -- 60
2020-03-25 19:00:00 11.6 7 Norte 22 Noroeste 0 -- -- 45
2020-03-25 18:00:00 12.7 11 Norte 28 Noroeste 0 -- -- 46
2020-03-25 17:00:00 16.2 15 Norte 28 Norte 0 -- -- 36
2020-03-25 16:00:00 17 11 Noroeste 31 Noroeste 0 -- -- 28
2020-03-25 15:00:00 17 14 Norte 30 Norte 0 -- -- 35
2020-03-25 14:00:00 16.7 11 Noroeste 29 Noroeste 0 -- -- 37
2020-03-25 13:00:00 16.4 12 Norte 29 Noroeste 0 -- -- 43
2020-03-25 12:00:00 15.4 10 Noroeste 27 Noroeste 0 -- -- 47
2020-03-25 11:00:00 13.2 6 Norte 13 Noroeste 0 -- -- 58
2020-03-25 10:00:00 10.6 3 Sudeste 6 Sudeste 0 -- -- 64
2020-03-25 09:00:00 6 2 Sudeste 4 Sudeste 0 -- -- 90
2020-03-25 08:00:00 1.2 0 Calma 6 Norte 0 -- -- 98
2020-03-25 07:00:00 1.3 2 Norte 3 Nordeste 0 -- -- 97
2020-03-25 06:00:00 1.9 0 Calma 3 Norte 0 -- -- 97
2020-03-25 05:00:00 1.5 0 Calma 5 Norte 0 -- -- 97
2020-03-25 04:00:00 2 2 Norte 6 Norte 0 -- -- 96
2020-03-25 03:00:00 2.9 3 Nordeste 6 Norte 0 -- -- 96
2020-03-25 02:00:00 3.4 3 Norte 6 Norte 0 -- -- 95
2020-03-25 01:00:00 4.7 0 Calma 7 Norte 0 -- -- 93
2020-03-25 00:00:00 5.7 4 Norte 8 Norte 0 -- -- 90
2020-03-24 23:00:00 7.8 8 Norte 15 Norte 0 -- -- 84
2020-03-24 22:00:00 9.7 9 Norte 15 Norte 0 -- -- 78
2020-03-24 21:00:00 11.5 6 Norte 20 Norte 0 -- -- 74
2020-03-24 20:00:00 12.7 9 Noroeste 23 Noroeste 0 -- -- 65
2020-03-24 19:00:00 13.8 12 Noroeste 27 Oeste 0 -- -- 61
2020-03-24 18:00:00 16.1 12 Sudoeste 19 Sur 0 -- -- 43
2020-03-24 17:00:00 21.2 3 Sudoeste 17 Oeste 0 -- -- 32
2020-03-24 16:00:00 19.3 4 Sur 18 Este 0 -- -- 36
2020-03-24 15:00:00 19.5 4 Este 19 Sudoeste 0 -- -- 37
2020-03-24 14:00:00 16.5 9 Sur 23 Nordeste 0 -- -- 41
2020-03-24 13:00:00 14.2 9 Sudeste 24 Este 0 -- -- 48
2020-03-24 12:00:00 12.7 5 Nordeste 24 Sudeste 0 -- -- 56
2020-03-24 11:00:00 11 10 Nordeste 24 Nordeste 0 -- -- 60
2020-03-24 10:00:00 10.1 6 Este 23 Este 0 -- -- 64
2020-03-24 09:00:00 9.5 5 Nordeste 12 Nordeste 0 -- -- 67
2020-03-24 08:00:00 8.9 5 Nordeste 13 Este 0 -- -- 69
2020-03-24 07:00:00 8.7 5 Nordeste 17 Este 0 -- -- 72
2020-03-24 06:00:00 9.2 8 Nordeste 18 Este 0 -- -- 69
2020-03-24 05:00:00 9.1 7 Nordeste 18 Este 0 -- -- 71
2020-03-24 04:00:00 9.5 5 Nordeste 22 Este 0 -- -- 68
2020-03-24 03:00:00 9.6 8 Nordeste 19 Este 0 -- -- 70
2020-03-24 02:00:00 8.9 3 Este 16 Este 0 -- -- 75
2020-03-24 01:00:00 8.5 4 Este 13 Sudeste 0 -- -- 78
2020-03-24 00:00:00 5.1 5 Nordeste 10 Noroeste 0 -- -- 90
2020-03-23 23:00:00 5.2 3 Norte 9 Norte 0 -- -- 89
2020-03-23 22:00:00 5.7 5 Norte 10 Norte 0 -- -- 87
2020-03-23 21:00:00 7.1 4 Norte 13 Norte 0 -- -- 85
2020-03-23 20:00:00 9 4 Norte 19 Noroeste 0 -- -- 77
2020-03-23 19:00:00 10.6 12 Norte 31 Noroeste 0 -- -- 71
2020-03-23 18:00:00 11.8 22 Noroeste 31 Noroeste 0 -- -- 66
2020-03-23 17:00:00 16.4 7 Oeste 16 Oeste 0 -- -- 40
2020-03-23 16:00:00 14.8 11 Sur 18 Sur 0 -- -- 44
2020-03-23 15:00:00 16.9 7 Sudeste 22 Nordeste 0 -- -- 39
2020-03-23 14:00:00 16.6 10 Este 18 Este 0 -- -- 36
2020-03-23 13:00:00 14.7 9 Sur 15 Sur 0 -- -- 40
2020-03-23 12:00:00 11.6 6 Sur 9 Sur 0 -- -- 56
2020-03-23 11:00:00 8.6 4 Sur 8 Sur 0 -- -- 66
2020-03-23 10:00:00 6.6 4 Sur 6 Sur 0 -- -- 71
2020-03-23 09:00:00 2.3 3 Sur 6 Norte 0 -- -- 93
2020-03-23 08:00:00 -1.2 3 Nordeste 6 Norte 0 -- -- 98
2020-03-23 07:00:00 -1.4 0 Calma 7 Norte 0 -- -- 99
2020-03-23 06:00:00 -0.8 4 Norte 8 Norte 0 -- -- 98
2020-03-23 05:00:00 -0.7 5 Norte 8 Nordeste 0 -- -- 97
2020-03-23 04:00:00 0.4 6 Norte 10 Norte 0 -- -- 97
2020-03-23 03:00:00 0.5 4 Noroeste 9 Norte 0 -- -- 97
2020-03-23 02:00:00 1.1 2 Norte 7 Norte 0 -- -- 95
2020-03-23 01:00:00 1.8 0 Calma 6 Norte 0 -- -- 94
2020-03-23 00:00:00 3.4 3 Norte 9 Nordeste 0 -- -- 89
2020-03-22 23:00:00 4.9 3 Nordeste 12 Norte 0 -- -- 84
2020-03-22 22:00:00 5.7 5 Noroeste 13 Norte 0 -- -- 83
2020-03-22 21:00:00 7.9 6 Norte 11 Norte 0 -- -- 71
2020-03-22 20:00:00 9.4 7 Norte 17 Norte 0 -- -- 65
2020-03-22 19:00:00 11 12 Norte 30 Noroeste 0 -- -- 60
2020-03-22 18:00:00 11.6 19 Noroeste 32 Noroeste 0 -- -- 62
2020-03-22 17:00:00 13.6 16 Noroeste 39 Noroeste 0 -- -- 57
2020-03-22 16:00:00 15.5 14 Noroeste 36 Noroeste 0 -- -- 53
2020-03-22 15:00:00 15.1 13 Noroeste 24 Norte 0 -- -- 56
2020-03-22 14:00:00 15.3 8 Norte 14 Nordeste 0 -- -- 47
2020-03-22 13:00:00 16.7 3 Sudeste 15 Sudeste 0 -- -- 43
2020-03-22 12:00:00 13 3 Sur 8 Sur 0 -- -- 70
2020-03-22 11:00:00 10.7 3 Sur 5 Sur 0 -- -- 74
2020-03-22 10:00:00 7.3 3 Sudeste 4 Sudeste 0 -- -- 90
2020-03-22 09:00:00 3.5 2 Nordeste 3 Nordeste 0 -- -- 99
2020-03-22 08:00:00 1.1 3 Nordeste 6 Nordeste 0 -- -- 99
2020-03-22 07:00:00 1.1 3 Nordeste 5 Noroeste 0 -- -- 100
2020-03-22 06:00:00 1 3 Nordeste 5 Norte 0 -- -- 99
2020-03-22 05:00:00 1.9 0 Calma 5 Norte 0 -- -- 99
2020-03-22 04:00:00 1.9 0 Calma 6 Norte 0 -- -- 99
2020-03-22 03:00:00 2.5 3 Norte 6 Norte 0.2 -- -- 99
2020-03-22 02:00:00 3 5 Norte 6 Norte 0 -- -- 98
2020-03-22 01:00:00 4 3 Norte 6 Norte 0 -- -- 98
2020-03-22 00:00:00 5 3 Norte 6 Norte 0 -- -- 97
2020-03-21 23:00:00 4.9 5 Norte 9 Norte 0 -- -- 96
2020-03-21 22:00:00 5.3 3 Norte 7 Norte 0 -- -- 96
2020-03-21 21:00:00 5.9 3 Noroeste 8 Norte 0 -- -- 96
2020-03-21 20:00:00 6.4 4 Norte 6 Norte 0 -- -- 95
2020-03-21 19:00:00 7.9 0 Calma 27 Nordeste 2.8 -- -- 91
2020-03-21 18:00:00 10.6 11 Norte 29 Norte 0.2 -- -- 74
2020-03-21 17:00:00 13.8 15 Noroeste 29 Noroeste 0 -- -- 55
2020-03-21 16:00:00 15.5 13 Sudoeste 22 Sudoeste 0 -- -- 54
2020-03-21 15:00:00 17.1 8 Sur 21 Sudoeste 0 -- -- 49
2020-03-21 14:00:00 14.3 12 Sur 22 Este 0 -- -- 60
2020-03-21 13:00:00 13.5 9 Este 22 Nordeste 0 -- -- 59
2020-03-21 12:00:00 13.2 4 Nordeste 19 Sudoeste 0 -- -- 62
2020-03-21 11:00:00 11.2 3 Noroeste 17 Sudoeste 0 -- -- 70
2020-03-21 10:00:00 9.8 5 Este 21 Este 0 -- -- 77
2020-03-21 09:00:00 8.1 6 Este 31 Este 0 -- -- 85
2020-03-21 08:00:00 8 12 Este 33 Este 0 -- -- 83
2020-03-21 07:00:00 8.6 13 Este 33 Sudeste 0 -- -- 79
2020-03-21 06:00:00 9.7 10 Nordeste 35 Este 0 -- -- 77
2020-03-21 05:00:00 9.5 8 Nordeste 20 Nordeste 0 -- -- 79
2020-03-21 04:00:00 9.9 8 Este 21 Este 0 -- -- 75
2020-03-21 03:00:00 8.9 3 Sudeste 15 Sur 0 -- -- 85
2020-03-21 02:00:00 9.3 5 Este 16 Norte 0 -- -- 82
2020-03-21 01:00:00 7.3 3 Noroeste 7 Norte 0 -- -- 94
2020-03-21 00:00:00 7.3 4 Sudoeste 8 Sudeste 0 -- -- 94
2020-03-20 23:00:00 7.8 3 Este 8 Sur 0 -- -- 91
2020-03-20 22:00:00 8.5 6 Sur 18 Oeste 0 -- -- 86
2020-03-20 21:00:00 9.5 4 Noroeste 17 Este 0 -- -- 81
2020-03-20 20:00:00 9.9 5 Nordeste 18 Este 0 -- -- 77
2020-03-20 19:00:00 10.7 9 Este 19 Nordeste 0 -- -- 71
2020-03-20 18:00:00 11 8 Este 27 Este 0 -- -- 74
2020-03-20 17:00:00 11.7 12 Este 29 Nordeste 0 -- -- 68
2020-03-20 16:00:00 11.3 11 Este 28 Nordeste 0 -- -- 70
2020-03-20 15:00:00 12.1 14 Este 28 Este 0 -- -- 69
2020-03-20 14:00:00 11.6 12 Este 28 Este 0 -- -- 71
2020-03-20 13:00:00 10.5 15 Este 27 Nordeste 0 -- -- 76
2020-03-20 12:00:00 9.7 12 Nordeste 29 Este 0 -- -- 78
2020-03-20 11:00:00 9.4 16 Este 30 Este 0 -- -- 79
2020-03-20 10:00:00 8.8 4 Norte 13 Noroeste 0 -- -- 84
2020-03-20 09:00:00 8.1 4 Norte 14 Norte 0 -- -- 84
2020-03-20 08:00:00 7.6 6 Nordeste 20 Este 0 -- -- 85
2020-03-20 07:00:00 7 4 Norte 11 Noroeste 0 -- -- 95
2020-03-20 06:00:00 4.9 2 Sur 15 Norte 0 -- -- 100
2020-03-20 05:00:00 3.7 2 Sudeste 7 Este 0 -- -- 100
2020-03-20 04:00:00 3.3 2 Este 6 Norte 0 -- -- 100
2020-03-20 03:00:00 3.4 2 Norte 5 Nordeste 0 -- -- 99
2020-03-20 02:00:00 3.7 3 Norte 7 Noroeste 0 -- -- 100
2020-03-20 01:00:00 4 0 Calma 5 Nordeste 0 -- -- 100
2020-03-20 00:00:00 4.6 3 Nordeste 7 Nordeste 0 -- -- 100
2020-03-19 23:00:00 5.4 2 Norte 5 Noroeste 0 -- -- 99
2020-03-19 22:00:00 6 2 Norte 5 Noroeste 0 -- -- 99
2020-03-19 21:00:00 7.1 3 Noroeste 10 Norte 0 -- -- 98
2020-03-19 20:00:00 8 3 Noroeste 5 Noroeste 0 -- -- 97
2020-03-19 19:00:00 9.2 2 Sudoeste 5 Nordeste 0 -- -- 94
2020-03-19 18:00:00 9.5 5 Norte 10 Norte 2 -- -- 93
2020-03-19 17:00:00 10.3 5 Nordeste 13 Oeste 1.2 -- -- 92
2020-03-19 16:00:00 11.6 6 Norte 12 Noroeste 0.4 -- -- 85
2020-03-19 15:00:00 11.2 4 Sur 8 Nordeste 1.4 -- -- 87
2020-03-19 14:00:00 9.2 4 Sudoeste 28 Oeste 12.4 -- -- 88
2020-03-19 13:00:00 14.8 9 Sur 13 Sudoeste 0.4 -- -- 71
2020-03-19 12:00:00 15.6 5 Sur 6 Sur 0 -- -- 59
2020-03-19 11:00:00 12.4 3 Sur 5 Sur 0 -- -- 68
2020-03-19 10:00:00 9.5 0 Calma 4 Sudeste 0 -- -- 75
2020-03-19 09:00:00 4.8 2 Nordeste 5 Nordeste 0 -- -- 96
2020-03-19 08:00:00 2.4 0 Calma 5 Nordeste 0 -- -- 98
2020-03-19 07:00:00 2.6 2 Norte 4 Nordeste 0 -- -- 98
2020-03-19 06:00:00 3.1 0 Calma 4 Este 0 -- -- 97
2020-03-19 05:00:00 3.8 3 Norte 5 Norte 0 -- -- 96
2020-03-19 04:00:00 4.2 0 Calma 5 Norte 0 -- -- 95
2020-03-19 03:00:00 4.7 0 Calma 4 Este 0 -- -- 95
2020-03-19 02:00:00 5.3 0 Calma 4 Este 0 -- -- 93
2020-03-19 01:00:00 5.9 0 Calma 5 Norte 0 -- -- 92
2020-03-19 00:00:00 6.8 0 Calma 5 Noroeste 0 -- -- 88
2020-03-18 23:00:00 7.6 0 Calma 5 Nordeste 0 -- -- 86
2020-03-18 22:00:00 8.5 0 Calma 3 Sudeste 0 -- -- 84
2020-03-18 21:00:00 10.6 0 Calma 13 Norte 0 -- -- 74
2020-03-18 20:00:00 13.8 3 Norte 21 Noroeste 0 -- -- 63
2020-03-18 19:00:00 16.7 12 Noroeste 21 Noroeste 0 -- -- 51
2020-03-18 18:00:00 18.5 8 Sur 24 Sur 0 -- -- 39
2020-03-18 17:00:00 20.3 12 Sur 24 Sur 0 -- -- 37
2020-03-18 16:00:00 20.7 13 Sur 29 Sur 0 -- -- 34
2020-03-18 15:00:00 20.3 13 Sur 22 Sur 0 -- -- 37
2020-03-18 14:00:00 20.4 4 Oeste 8 Sur 0 -- -- 37
2020-03-18 13:00:00 16.7 6 Sur 8 Sur 0 -- -- 51
2020-03-18 12:00:00 13.8 4 Sur 8 Sur 0 -- -- 63
2020-03-18 11:00:00 10.6 3 Sur 5 Sur 0 -- -- 71
2020-03-18 10:00:00 7.3 3 Sudeste 4 Sudeste 0 -- -- 87
2020-03-18 09:00:00 2.3 2 Nordeste 5 Noroeste 0 -- -- 99
2020-03-18 08:00:00 0.4 2 Norte 5 Norte 0 -- -- 98
2020-03-18 07:00:00 0.4 3 Norte 5 Norte 0 -- -- 99
2020-03-18 06:00:00 0.9 0 Calma 5 Noroeste 0 -- -- 99
2020-03-18 05:00:00 1.7 3 Norte 4 Norte 0 -- -- 99
2020-03-18 04:00:00 2.1 0 Calma 6 Nordeste 0 -- -- 98
2020-03-18 03:00:00 2.8 0 Calma 5 Norte 0 -- -- 97
2020-03-18 02:00:00 3.1 0 Calma 4 Norte 0 -- -- 96
2020-03-18 01:00:00 3.9 2 Este 7 Este 0 -- -- 94
2020-03-18 00:00:00 5 3 Sudeste 8 Noroeste 0 -- -- 93
2020-03-17 23:00:00 5.5 3 Nordeste 8 Este 0 -- -- 88
2020-03-17 22:00:00 7.1 3 Sudeste 19 Nordeste 0 -- -- 83
2020-03-17 21:00:00 10.2 5 Nordeste 21 Este 0 -- -- 71
2020-03-17 20:00:00 11.2 7 Nordeste 22 Este 0 -- -- 68
2020-03-17 19:00:00 12.6 7 Este 26 Este 0 -- -- 63
2020-03-17 18:00:00 14.1 14 Este 34 Sur 0 -- -- 57
2020-03-17 17:00:00 15.1 7 Sur 22 Sudoeste 0 -- -- 54
2020-03-17 16:00:00 16.4 4 Oeste 30 Oeste 0 -- -- 52
2020-03-17 15:00:00 17.5 6 Sur 35 Sudoeste 0 -- -- 47
2020-03-17 14:00:00 16.2 6 Nordeste 27 Nordeste 0 -- -- 50
2020-03-17 13:00:00 14 6 Nordeste 19 Este 0 -- -- 55
2020-03-17 12:00:00 9.9 4 Norte 9 Sudeste 0 -- -- 62
2020-03-17 11:00:00 7.9 2 Noroeste 7 Este 0 -- -- 65
2020-03-17 10:00:00 5.1 3 Norte 8 Este 0 -- -- 70
2020-03-17 09:00:00 1.8 0 Calma 8 Nordeste 0 -- -- 88
2020-03-17 08:00:00 -0.4 8 Norte 9 Norte 0 -- -- 92
2020-03-17 07:00:00 -0.7 3 Norte 6 Norte 0 -- -- 91
2020-03-17 06:00:00 -0.7 4 Norte 7 Norte 0 -- -- 88
2020-03-17 05:00:00 -0.2 4 Norte 8 Sudoeste 0 -- -- 86
2020-03-17 04:00:00 1.2 5 Noroeste 23 Noroeste 0 -- -- 80
2020-03-17 03:00:00 2 12 Norte 22 Noroeste 0 -- -- 75
2020-03-17 02:00:00 3 9 Norte 18 Noroeste 0 -- -- 70
2020-03-17 01:00:00 4 13 Norte 21 Norte 0 -- -- 62
2020-03-17 00:00:00 3.7 6 Nordeste 31 Norte 0 -- -- 64
2020-03-16 23:00:00 4.2 18 Norte 35 Nordeste 0 -- -- 59
2020-03-16 22:00:00 4 19 Norte 28 Norte 0 -- -- 59
2020-03-16 21:00:00 3.2 9 Norte 29 Este 0 -- -- 68
2020-03-16 20:00:00 4 10 Nordeste 22 Norte 0 -- -- 64
2020-03-16 19:00:00 4.6 12 Norte 33 Norte 0 -- -- 69
2020-03-16 18:00:00 5.5 11 Norte 30 Norte 0 -- -- 60
2020-03-16 17:00:00 6.4 16 Noroeste 36 Norte 0 -- -- 63
2020-03-16 16:00:00 5.3 18 Norte 38 Norte 0 -- -- 72
2020-03-16 15:00:00 6.7 19 Nordeste 39 Noroeste 0 -- -- 65
2020-03-16 14:00:00 6.9 15 Norte 38 Norte 0.2 -- -- 66
2020-03-16 13:00:00 7 13 Norte 35 Noroeste 0 -- -- 66
2020-03-16 12:00:00 4.1 14 Norte 36 Noroeste 0 -- -- 76
2020-03-16 11:00:00 2.6 11 Norte 36 Noroeste 0 -- -- 85
2020-03-16 10:00:00 2.1 13 Norte 25 Norte 0.2 -- -- 81
2020-03-16 09:00:00 0.7 11 Norte 42 Noroeste 0.2 -- -- 92
2020-03-16 08:00:00 1.4 17 Norte 40 Norte 0 -- -- 80
2020-03-16 07:00:00 1.8 14 Norte 37 Norte 0 -- -- 72
2020-03-16 06:00:00 1.5 14 Norte 31 Noroeste 0 -- -- 79
2020-03-16 05:00:00 1.4 20 Norte 35 Noroeste 0.2 -- -- 81
2020-03-16 04:00:00 1.2 12 Norte 37 Noroeste 0 -- -- 84
2020-03-16 03:00:00 1 9 Norte 32 Noroeste 0 -- -- 88
2020-03-16 02:00:00 1.1 10 Norte 25 Noroeste 0 -- -- 87
2020-03-16 01:00:00 0.7 7 Norte 16 Noroeste 0.4 -- -- 92
2020-03-16 00:00:00 0.8 6 Nordeste 15 Nordeste 0 -- -- 91
2020-03-15 23:00:00 0.9 8 Este 15 Este 0 -- -- 90
2020-03-15 22:00:00 0.7 6 Nordeste 14 Nordeste 0.2 -- -- 92
2020-03-15 21:00:00 0.5 9 Nordeste 15 Nordeste 0.6 -- -- 95
2020-03-15 20:00:00 0.6 5 Nordeste 13 Este 0.8 -- -- 95
2020-03-15 19:00:00 0.9 5 Nordeste 31 Norte 1.2 -- -- 93
2020-03-15 18:00:00 2 16 Norte 50 Noroeste 0.4 -- -- 85
2020-03-15 17:00:00 6.7 34 Noroeste 55 Noroeste 0 -- -- 76
2020-03-15 16:00:00 14.9 15 Sur 45 Sudoeste 0 -- -- 36
2020-03-15 15:00:00 13.4 28 Sur 58 Sur 0 -- -- 36
2020-03-15 14:00:00 12.8 34 Sur 65 Sur 0 -- -- 35
2020-03-15 13:00:00 12.9 29 Sur 50 Sur 0 -- -- 34
2020-03-15 12:00:00 13.1 22 Sur 40 Sur 0 -- -- 35
2020-03-15 11:00:00 8.3 2 Este 9 Sur 0 -- -- 57
2020-03-15 10:00:00 5.3 4 Sudeste 8 Sur 0 -- -- 66
2020-03-15 09:00:00 -1.4 3 Nordeste 6 Norte 0 -- -- 95
2020-03-15 08:00:00 -2.4 4 Norte 7 Noroeste 0 -- -- 96
2020-03-15 07:00:00 -2.3 4 Norte 6 Norte 0 -- -- 96
2020-03-15 06:00:00 -1.6 0 Calma 7 Nordeste 0 -- -- 95
2020-03-15 05:00:00 -1.7 0 Calma 7 Norte 0 -- -- 94
2020-03-15 04:00:00 -0.8 0 Calma 6 Noroeste 0 -- -- 94
2020-03-15 03:00:00 -0.1 2 Nordeste 6 Norte 0 -- -- 90
2020-03-15 02:00:00 0.4 0 Calma 5 Norte 0 -- -- 90
2020-03-15 01:00:00 1.1 2 Sudoeste 7 Norte 0 -- -- 87
2020-03-15 00:00:00 2.9 3 Norte 7 Nordeste 0 -- -- 79
2020-03-14 23:00:00 3.7 2 Nordeste 7 Norte 0 -- -- 81
2020-03-14 22:00:00 5.9 3 Norte 7 Norte 0 -- -- 69
2020-03-14 21:00:00 7.3 3 Norte 6 Norte 0 -- -- 63
2020-03-14 20:00:00 11.2 4 Sudeste 24 Noroeste 0 -- -- 52
2020-03-14 19:00:00 14.2 14 Noroeste 28 Noroeste 0 -- -- 39
2020-03-14 18:00:00 15 13 Noroeste 27 Noroeste 0 -- -- 36
2020-03-14 17:00:00 20.7 6 Oeste 19 Sudoeste 0 -- -- 21
2020-03-14 16:00:00 20.6 12 Sudoeste 22 Sudoeste 0 -- -- 21
2020-03-14 15:00:00 20.4 8 Sudoeste 20 Sur 0 -- -- 26
2020-03-14 14:00:00 19.6 5 Sur 12 Sur 0 -- -- 16
2020-03-14 13:00:00 16.3 6 Sur 9 Sur 0 -- -- 24
2020-03-14 12:00:00 12.3 3 Sudeste 5 Sur 0 -- -- 42
2020-03-14 11:00:00 7.9 3 Sudeste 6 Sudeste 0 -- -- 48
2020-03-14 10:00:00 3.9 3 Sudeste 5 Este 0 -- -- 59
2020-03-14 09:00:00 -2.9 0 Calma 5 Norte 0 -- -- 89
2020-03-14 08:00:00 -3.8 3 Norte 4 Norte 0 -- -- 90
2020-03-14 07:00:00 -3.3 4 Norte 5 Norte 0 -- -- 89
2020-03-14 06:00:00 -2.9 4 Norte 5 Norte 0 -- -- 87
2020-03-14 05:00:00 -2.7 2 Nordeste 6 Norte 0 -- -- 87
2020-03-14 04:00:00 -2.1 2 Norte 5 Norte 0 -- -- 85
2020-03-14 03:00:00 -1.9 3 Norte 6 Norte 0 -- -- 87
2020-03-14 02:00:00 -0.7 3 Norte 7 Norte 0 -- -- 84
2020-03-14 01:00:00 -0.5 3 Nordeste 9 Norte 0 -- -- 82
2020-03-14 00:00:00 0.7 4 Norte 7 Norte 0 -- -- 85
2020-03-13 23:00:00 2.2 4 Nordeste 9 Nordeste 0 -- -- 79
2020-03-13 22:00:00 2.7 2 Norte 7 Nordeste 0 -- -- 82
2020-03-13 21:00:00 3.8 0 Calma 5 Norte 0 -- -- 88
2020-03-13 20:00:00 5.7 3 Norte 11 Norte 0 -- -- 78
2020-03-13 19:00:00 7.7 0 Calma 18 Norte 0 -- -- 79
2020-03-13 18:00:00 9.7 8 Norte 33 Norte 0 -- -- 68
2020-03-13 17:00:00 12.7 20 Norte 32 Noroeste 0 -- -- 60
2020-03-13 16:00:00 16.6 9 Norte 26 Noroeste 0 -- -- 47
2020-03-13 15:00:00 14.1 20 Norte 32 Noroeste 0 -- -- 58
2020-03-13 14:00:00 14.2 14 Norte 27 Noroeste 0 -- -- 59
2020-03-13 13:00:00 14.7 5 Este 10 Este 0 -- -- 57
2020-03-13 12:00:00 11.7 3 Nordeste 11 Norte 0 -- -- 67
2020-03-13 11:00:00 9.8 2 Noroeste 11 Norte 0 -- -- 69
2020-03-13 10:00:00 8.4 4 Nordeste 13 Nordeste 0 -- -- 73
2020-03-13 09:00:00 7.1 9 Norte 18 Norte 0 -- -- 77
2020-03-13 08:00:00 6.5 12 Norte 19 Norte 0 -- -- 78
2020-03-13 07:00:00 6.5 11 Norte 22 Nordeste 0 -- -- 78
2020-03-13 06:00:00 6.5 11 Norte 16 Norte 0 -- -- 80
2020-03-13 05:00:00 6.7 8 Norte 13 Nordeste 0 -- -- 78
2020-03-13 04:00:00 6.7 10 Norte 17 Norte 0 -- -- 79
2020-03-13 03:00:00 7.2 5 Norte 15 Nordeste 0 -- -- 76
2020-03-13 02:00:00 7.4 5 Nordeste 16 Nordeste 0 -- -- 75
2020-03-13 01:00:00 7.5 5 Nordeste 15 Nordeste 0 -- -- 75
2020-03-13 00:00:00 7.5 6 Norte 13 Noroeste 0 -- -- 75
2020-03-12 23:00:00 7.8 6 Norte 15 Nordeste 0 -- -- 77
2020-03-12 22:00:00 8.2 4 Nordeste 15 Noroeste 0 -- -- 81
2020-03-12 21:00:00 8.4 9 Norte 16 Noroeste 0 -- -- 81
2020-03-12 20:00:00 9.1 8 Norte 26 Noroeste 0 -- -- 76
2020-03-12 19:00:00 9.3 15 Noroeste 27 Noroeste 0 -- -- 76
2020-03-12 18:00:00 10.4 18 Noroeste 35 Noroeste 0 -- -- 72
2020-03-12 17:00:00 12.9 20 Noroeste 42 Noroeste 0 -- -- 65
2020-03-12 16:00:00 13.5 28 Noroeste 45 Noroeste 0 -- -- 64
2020-03-12 15:00:00 14.5 25 Norte 40 Norte 0 -- -- 63
2020-03-12 14:00:00 15.8 20 Norte 32 Noroeste 0 -- -- 58
2020-03-12 13:00:00 16.6 10 Norte 22 Norte 0 -- -- 56
2020-03-12 12:00:00 15.4 5 Noroeste 19 Norte 0 -- -- 59
2020-03-12 11:00:00 11.9 2 Este 5 Sur 0 -- -- 72
2020-03-12 10:00:00 9.5 0 Calma 6 Este 0 -- -- 76
2020-03-12 09:00:00 2.5 2 Nordeste 6 Norte 0 -- -- 99
2020-03-12 08:00:00 1.8 3 Norte 6 Norte 0 -- -- 98
2020-03-12 07:00:00 2.3 0 Calma 4 Norte 0 -- -- 98
2020-03-12 06:00:00 2.4 3 Noroeste 5 Norte 0 -- -- 97
2020-03-12 05:00:00 3.2 2 Norte 4 Noroeste 0 -- -- 96
2020-03-12 04:00:00 3.5 0 Calma 4 Sudeste 0 -- -- 96
2020-03-12 03:00:00 4.2 2 Nordeste 5 Nordeste 0 -- -- 94
2020-03-12 02:00:00 4.6 0 Calma 5 Oeste 0 -- -- 94
2020-03-12 01:00:00 5.4 2 Este 4 Sudeste 0 -- -- 92
2020-03-12 00:00:00 6.2 0 Calma 4 Este 0 -- -- 88
2020-03-11 23:00:00 7.5 0 Calma 5 Noroeste 0 -- -- 84
2020-03-11 22:00:00 9.1 0 Calma 5 Norte 0 -- -- 78
2020-03-11 21:00:00 10.6 0 Calma 4 Nordeste 0 -- -- 70
2020-03-11 20:00:00 13 0 Calma 9 Norte 0 -- -- 60
2020-03-11 19:00:00 17.2 4 Oeste 44 Sur 0 -- -- 42
2020-03-11 18:00:00 19.1 19 Sur 45 Sur 0 -- -- 38
2020-03-11 17:00:00 21.1 24 Sur 55 Sur 0 -- -- 37
2020-03-11 16:00:00 21.7 22 Sur 44 Sur 0 -- -- 36
2020-03-11 15:00:00 21.4 17 Sur 44 Sur 0 -- -- 33
2020-03-11 14:00:00 19.9 30 Sur 51 Sur 0 -- -- 28
2020-03-11 13:00:00 18.8 23 Sur 38 Sur 0 -- -- 35
2020-03-11 12:00:00 13.7 3 Sur 5 Sur 0 -- -- 55
2020-03-11 11:00:00 9.8 3 Sur 6 Sur 0 -- -- 65
2020-03-11 10:00:00 6.2 4 Sudeste 5 Sudeste 0 -- -- 78
2020-03-11 09:00:00 0 0 Calma 4 Norte 0 -- -- 98
2020-03-11 08:00:00 -0.4 3 Norte 4 Norte 0 -- -- 97
2020-03-11 07:00:00 -0.2 0 Calma 3 Norte 0 -- -- 97
2020-03-11 06:00:00 -0.1 0 Calma 4 Nordeste 0 -- -- 97
2020-03-11 05:00:00 0.6 0 Calma 5 Norte 0 -- -- 96
2020-03-11 04:00:00 0.9 0 Calma 6 Norte 0 -- -- 96
2020-03-11 03:00:00 1.5 0 Calma 4 Norte 0 -- -- 95
2020-03-11 02:00:00 1.9 0 Calma 5 Norte 0 -- -- 93
2020-03-11 01:00:00 2.9 2 Nordeste 6 Nordeste 0 -- -- 88
2020-03-11 00:00:00 3.7 0 Calma 4 Norte 0 -- -- 87
2020-03-10 23:00:00 5.8 3 Norte 6 Norte 0 -- -- 70
2020-03-10 22:00:00 6.4 3 Este 6 Nordeste 0 -- -- 78
2020-03-10 21:00:00 8.2 0 Calma 8 Norte 0 -- -- 65
2020-03-10 20:00:00 11.8 4 Norte 28 Sur 0 -- -- 47
2020-03-10 19:00:00 15.7 9 Sudoeste 30 Sur 0 -- -- 33
2020-03-10 18:00:00 17.6 19 Sur 37 Sur 0 -- -- 30
2020-03-10 17:00:00 19.8 22 Sur 35 Sur 0 -- -- 26
2020-03-10 16:00:00 20.1 22 Sudoeste 35 Sur 0 -- -- 24
2020-03-10 15:00:00 19.9 19 Sur 34 Sudoeste 0 -- -- 22
2020-03-10 14:00:00 18.9 18 Sudoeste 32 Sudoeste 0 -- -- 19
2020-03-10 13:00:00 18.4 15 Sudoeste 28 Sudoeste 0 -- -- 21
2020-03-10 12:00:00 12.4 3 Sudeste 8 Sur 0 -- -- 56
2020-03-10 11:00:00 9.4 3 Sudeste 5 Sur 0 -- -- 63
2020-03-10 10:00:00 5.1 0 Calma 5 Sur 0 -- -- 79
2020-03-10 09:00:00 1.4 2 Norte 6 Norte 0 -- -- 95
2020-03-10 08:00:00 0 3 Norte 5 Norte 0 -- -- 96
2020-03-10 07:00:00 0 0 Calma 3 Nordeste 0 -- -- 96
2020-03-10 06:00:00 0.3 2 Norte 5 Norte 0 -- -- 96
2020-03-10 05:00:00 0.5 2 Norte 5 Noroeste 0 -- -- 95
2020-03-10 04:00:00 0.8 4 Norte 5 Norte 0 -- -- 94
2020-03-10 03:00:00 1.1 2 Nordeste 5 Norte 0 -- -- 92
2020-03-10 02:00:00 1.6 0 Calma 6 Norte 0 -- -- 91
2020-03-10 01:00:00 2.5 0 Calma 6 Norte 0 -- -- 87
2020-03-10 00:00:00 2.8 3 Norte 8 Norte 0 -- -- 86
2020-03-09 23:00:00 4.3 2 Nordeste 7 Norte 0 -- -- 81
2020-03-09 22:00:00 5.7 4 Norte 9 Norte 0 -- -- 73
2020-03-09 21:00:00 6.2 0 Calma 4 Sudoeste 0 -- -- 73
2020-03-09 20:00:00 7.7 2 Noroeste 16 Noroeste 0 -- -- 66
2020-03-09 19:00:00 10.7 10 Noroeste 21 Noroeste 0 -- -- 50
2020-03-09 18:00:00 12.1 10 Norte 16 Noroeste 0 -- -- 44
2020-03-09 17:00:00 14.9 8 Norte 16 Este 0 -- -- 36
2020-03-09 16:00:00 14.1 9 Norte 24 Norte 0 -- -- 32
2020-03-09 15:00:00 13 15 Norte 36 Noroeste 0 -- -- 27
2020-03-09 14:00:00 11.9 12 Norte 23 Norte 0 -- -- 38
2020-03-09 13:00:00 12.9 5 Sur 18 Sudoeste 0 -- -- 42
2020-03-09 12:00:00 10 5 Sur 10 Sur 0 -- -- 48
2020-03-09 11:00:00 7.8 6 Sur 11 Sur 0 -- -- 60
2020-03-09 10:00:00 6 8 Sur 11 Sur 0 -- -- 71
2020-03-09 09:00:00 2.8 4 Sur 12 Sudoeste 0 -- -- 84
2020-03-09 08:00:00 2.2 5 Sur 9 Sur 0 -- -- 87
2020-03-09 07:00:00 2.4 3 Sudoeste 8 Sur 0 -- -- 83
2020-03-09 06:00:00 3 2 Este 16 Nordeste 0 -- -- 79
2020-03-09 05:00:00 4.1 3 Oeste 24 Norte 0 -- -- 74
2020-03-09 04:00:00 5.1 8 Noroeste 24 Noroeste 0 -- -- 70
2020-03-09 03:00:00 5 4 Noroeste 12 Sudoeste 0 -- -- 75
2020-03-09 02:00:00 5.1 4 Oeste 12 Oeste 0 -- -- 73
2020-03-09 01:00:00 6.1 9 Oeste 22 Oeste 0 -- -- 68
2020-03-09 00:00:00 6.5 6 Noroeste 18 Norte 0 -- -- 65